createdAt,value
2022-09-01T00:07:14.498Z,1.20
2022-09-01T00:12:14.500Z,1.20
2022-09-01T00:22:14.492Z,1.10
2022-09-01T00:27:14.497Z,1.10
2022-09-01T00:32:14.514Z,1.10
2022-09-01T00:37:14.505Z,1.50
2022-09-01T00:42:14.512Z,1.50
2022-09-01T00:47:14.499Z,1.50
2022-09-01T01:02:14.574Z,1.20
2022-09-01T01:07:14.521Z,1.20
2022-09-01T01:12:14.521Z,1.20
2022-09-01T01:17:14.536Z,1.20
2022-09-01T01:22:14.711Z,1.40
2022-09-01T01:27:14.526Z,1.40
2022-09-01T01:32:14.527Z,1.40
2022-09-01T01:37:14.531Z,1.60
2022-09-01T01:42:14.553Z,1.60
2022-09-01T01:47:14.541Z,1.60
2022-09-01T01:52:14.541Z,1.20
2022-09-01T01:57:14.528Z,1.20
2022-09-01T02:07:14.537Z,1.10
2022-09-01T02:12:15.595Z,1.10
2022-09-01T02:37:14.552Z,1.20
2022-09-01T02:42:14.555Z,1.20
2022-09-01T02:47:14.544Z,1.40
2022-09-01T03:02:14.557Z,1.20
2022-09-01T03:07:14.557Z,1.20
2022-09-01T03:12:14.556Z,1.20
2022-09-01T03:17:14.571Z,1.30
2022-09-01T03:22:14.563Z,1.30
2022-09-01T03:27:14.582Z,1.30
2022-09-01T03:32:14.671Z,1.20
2022-09-01T03:37:14.576Z,1.20
2022-09-01T03:47:14.585Z,1.40
2022-09-01T03:52:14.567Z,1.40
2022-09-01T03:57:14.580Z,1.40
2022-09-01T04:07:19.169Z,1.60
2022-09-01T04:17:14.594Z,1.50
2022-09-01T04:22:14.655Z,1.50
2022-09-01T04:32:14.604Z,1.80
2022-09-01T04:37:14.601Z,1.80
2022-09-01T04:47:14.599Z,1.30
2022-09-01T04:52:14.615Z,1.30
2022-09-01T04:57:14.697Z,1.30
2022-09-01T05:02:14.646Z,1.60
2022-09-01T05:12:15.816Z,1.60
2022-09-01T05:17:14.607Z,1.20
2022-09-01T05:27:14.617Z,1.20
2022-09-01T05:37:14.637Z,1.70
2022-09-01T05:47:20.634Z,1.80
2022-09-01T05:52:14.627Z,1.80
2022-09-01T06:12:14.622Z,1.80
2022-09-01T06:17:14.634Z,1.60
2022-09-01T06:22:14.645Z,1.60
2022-09-01T06:27:14.628Z,1.60
2022-09-01T06:32:14.650Z,1.40
2022-09-01T06:37:14.639Z,1.40
2022-09-01T06:52:14.645Z,1.80
2022-09-01T07:02:17.421Z,1.40
2022-09-01T07:27:16.113Z,1.30
2022-09-01T07:32:43.938Z,1.80
2022-09-01T07:38:47.103Z,1.80
2022-09-01T07:47:52.285Z,1.60
2022-09-01T07:52:14.689Z,1.60
2022-09-01T07:57:14.679Z,1.60
2022-09-01T08:02:14.770Z,1.00
2022-09-01T08:07:16.053Z,1.00
2022-09-01T08:12:14.678Z,1.00
2022-09-01T08:17:33.088Z,1.40
2022-09-01T08:22:14.684Z,1.40
2022-09-01T08:27:14.680Z,1.40
2022-09-01T08:32:14.694Z,0.70
2022-09-01T08:37:14.676Z,0.70
2022-09-01T08:42:14.698Z,0.70
2022-09-01T08:47:15.406Z,1.00
2022-09-01T08:52:15.216Z,1.00
2022-09-01T08:57:14.689Z,1.00
2022-09-01T09:02:14.980Z,0.80
2022-09-01T09:07:14.703Z,0.80
2022-09-01T09:12:14.701Z,0.80
2022-09-01T09:17:14.714Z,0.90
2022-09-01T09:22:14.712Z,0.90
2022-09-01T09:27:16.375Z,0.90
2022-09-01T09:32:44.346Z,1.00
2022-09-01T09:37:14.718Z,1.00
2022-09-01T09:42:15.226Z,1.00
2022-09-01T09:47:40.363Z,0.60
2022-09-01T09:52:16.524Z,0.60
2022-09-01T09:57:14.717Z,0.60
2022-09-01T10:02:14.735Z,0.60
2022-09-01T10:07:14.734Z,0.60
2022-09-01T10:12:14.732Z,0.60
2022-09-01T10:17:15.906Z,0.70
2022-09-01T10:22:15.171Z,0.70
2022-09-01T10:27:15.445Z,0.70
2022-09-01T10:32:34.707Z,0.40
2022-09-01T10:37:16.177Z,0.40
2022-09-01T10:42:15.045Z,0.40
2022-09-01T10:47:16.216Z,0.70
2022-09-01T10:52:16.269Z,0.70
2022-09-01T10:57:14.740Z,0.70
2022-09-01T11:02:28.836Z,0.50
2022-09-01T11:07:14.905Z,0.50
2022-09-01T11:12:14.761Z,0.50
2022-09-01T11:17:14.812Z,0.50
2022-09-01T11:22:14.766Z,0.50
2022-09-01T11:27:14.773Z,0.50
2022-09-01T11:32:14.797Z,0.50
2022-09-01T11:37:14.759Z,0.50
2022-09-01T11:42:14.860Z,0.50
2022-09-01T11:47:14.796Z,0.90
2022-09-01T11:52:14.763Z,0.90
2022-09-01T11:57:14.760Z,0.90
2022-09-01T12:02:14.961Z,1.10
2022-09-01T12:07:14.770Z,1.10
2022-09-01T12:12:14.773Z,1.10
2022-09-01T12:17:14.820Z,0.70
2022-09-01T12:22:15.615Z,0.70
2022-09-01T12:27:14.770Z,0.70
2022-09-01T12:32:14.887Z,1.20
2022-09-01T12:37:14.868Z,1.20
2022-09-01T12:42:15.002Z,1.20
2022-09-01T12:47:14.781Z,0.90
2022-09-01T12:52:15.000Z,0.90
2022-09-01T12:57:14.801Z,0.90
2022-09-01T13:02:14.914Z,0.80
2022-09-01T13:07:14.790Z,0.80
2022-09-01T13:12:14.801Z,0.80
2022-09-01T13:17:14.949Z,0.90
2022-09-01T13:22:14.796Z,0.90
2022-09-01T13:27:22.548Z,0.90
2022-09-01T13:32:18.752Z,0.60
2022-09-01T13:37:14.804Z,0.60
2022-09-01T13:42:15.993Z,0.60
2022-09-01T13:47:30.680Z,0.80
2022-09-01T13:52:14.827Z,0.80
2022-09-01T13:57:14.818Z,0.80
2022-09-01T14:02:14.825Z,1.10
2022-09-01T14:07:14.827Z,1.10
2022-09-01T14:12:14.816Z,1.10
2022-09-01T14:17:14.824Z,0.90
2022-09-01T14:22:14.830Z,0.90
2022-09-01T14:27:14.846Z,0.90
2022-09-01T14:37:14.835Z,1.00
2022-09-01T14:42:14.841Z,1.00
2022-09-01T14:47:18.265Z,0.90
2022-09-01T14:52:14.847Z,0.90
2022-09-01T14:57:36.978Z,0.90
2022-09-01T15:02:14.854Z,1.00
2022-09-01T15:07:14.850Z,1.00
2022-09-01T15:12:14.863Z,1.00
2022-09-01T15:17:14.855Z,1.00
2022-09-01T15:22:14.858Z,1.00
2022-09-01T15:27:14.856Z,1.00
2022-09-01T15:32:20.961Z,1.70
2022-09-01T15:37:14.872Z,1.70
2022-09-01T15:47:14.858Z,1.50
2022-09-01T15:52:14.883Z,1.50
2022-09-01T15:57:14.903Z,1.50
2022-09-01T16:02:14.950Z,1.00
2022-09-01T16:12:14.898Z,1.00
2022-09-01T16:17:14.880Z,1.10
2022-09-01T16:22:14.893Z,1.10
2022-09-01T16:27:14.881Z,1.10
2022-09-01T16:32:14.890Z,1.10
2022-09-01T16:37:14.887Z,1.10
2022-09-01T16:42:14.885Z,1.10
2022-09-01T16:52:14.895Z,1.10
2022-09-01T16:57:14.903Z,1.10
2022-09-01T17:02:14.981Z,0.90
2022-09-01T17:12:14.911Z,0.90
2022-09-01T17:17:14.910Z,1.00
2022-09-01T17:32:14.909Z,0.90
2022-09-01T17:37:14.919Z,0.90
2022-09-01T17:42:14.908Z,0.90
2022-09-01T17:47:14.918Z,1.20
2022-09-01T17:52:14.939Z,1.20
2022-09-01T17:57:14.931Z,1.20
2022-09-01T18:07:14.935Z,1.00
2022-09-01T18:12:14.942Z,1.00
2022-09-01T18:17:14.941Z,1.00
2022-09-01T18:22:14.940Z,1.00
2022-09-01T18:27:14.931Z,1.00
2022-09-01T18:32:14.939Z,1.10
2022-09-01T18:37:14.936Z,1.10
2022-09-01T18:47:14.943Z,1.20
2022-09-01T19:02:15.088Z,1.10
2022-09-01T19:12:14.975Z,1.10
2022-09-01T19:17:14.959Z,1.10
2022-09-01T19:22:14.969Z,1.10
2022-09-01T19:27:14.974Z,1.10
2022-09-01T19:42:15.058Z,1.30
2022-09-01T19:47:14.981Z,1.00
2022-09-01T19:52:14.973Z,1.00
2022-09-01T19:57:14.994Z,1.00
2022-09-01T20:02:15.007Z,1.10
2022-09-01T20:07:14.986Z,1.10
2022-09-01T20:12:14.983Z,1.10
2022-09-01T20:17:14.998Z,1.00
2022-09-01T20:27:14.991Z,1.00
2022-09-01T20:32:14.986Z,1.20
2022-09-01T20:37:15.006Z,1.20
2022-09-01T20:42:14.992Z,1.20
2022-09-01T20:47:14.995Z,1.40
2022-09-01T20:52:15.336Z,1.40
2022-09-01T20:57:15.004Z,1.40
2022-09-01T21:02:15.056Z,0.90
2022-09-01T21:07:15.006Z,0.90
2022-09-01T21:12:15.019Z,0.90
2022-09-01T21:17:15.006Z,1.20
2022-09-01T21:22:18.496Z,1.20
2022-09-01T21:27:15.018Z,1.20
2022-09-01T21:32:15.026Z,1.30
2022-09-01T21:37:15.020Z,1.30
2022-09-01T21:42:15.025Z,1.30
2022-09-01T21:47:15.028Z,1.40
2022-09-01T21:52:15.033Z,1.40
2022-09-01T21:57:15.037Z,1.40
2022-09-01T22:02:15.092Z,1.10
2022-09-01T22:12:15.037Z,1.10
2022-09-01T22:17:15.036Z,1.10
2022-09-01T22:22:15.034Z,1.10
2022-09-01T22:27:15.035Z,1.10
2022-09-01T22:32:15.050Z,1.10
2022-09-01T22:37:15.041Z,1.10
2022-09-01T22:42:15.048Z,1.10
2022-09-01T22:47:15.050Z,1.10
2022-09-01T22:52:15.055Z,1.10
2022-09-01T22:57:15.069Z,1.10
2022-09-01T23:02:15.104Z,1.10
2022-09-01T23:12:15.060Z,1.10
2022-09-01T23:17:15.060Z,1.10
2022-09-01T23:22:16.559Z,1.10
2022-09-01T23:27:15.070Z,1.10
2022-09-01T23:32:15.124Z,0.90
2022-09-01T23:37:15.074Z,0.90
2022-09-01T23:52:15.072Z,1.00
2022-09-01T23:57:15.070Z,1.00
